Time;durP1;ratioP1;P1;durP2;ratioP2;P2;SDS_P1;SDS_P2;PMS_P1;PMS_P2;Temp;Humidity;BMP_temperature;BMP_pressure;BME280_temperature;BME280_humidity;BME280_pressure;Samples;Min_cycle;Max_cycle;Signal;HPM_P1;HPM_P2
2021/08/16 00:01:48;;;;;;;;;;;;;;;22.92;44.34;94791.44;2162428;31;20427;-72
2021/08/16 00:03:51;;;;;;;;;;;;;;;23.12;43.54;94788.41;2161939;39;20359;-72
2021/08/16 00:05:52;;;;;;;;;;;;;;;23.33;42.73;94787.00;2160904;54;20479;-71
2021/08/16 00:07:54;;;;;;;;;;;;;;;23.50;42.52;94786.00;2162048;47;20041;-71
2021/08/16 00:09:56;;;;;;;;;;;;;;;23.63;42.00;94786.78;2161997;54;19971;-71
2021/08/16 00:11:58;;;;;;;;;;;;;;;23.71;42.13;94794.44;2162136;54;19950;-70
2021/08/16 00:13:59;;;;;;;;;;;;;;;23.77;41.65;94790.84;2161463;54;20038;-72
2021/08/16 00:16:01;;;;;;;;;;;;;;;23.83;41.96;94792.56;2161139;54;19951;-69
2021/08/16 00:18:03;;;;;;;;;;;;;;;23.85;41.38;94782.41;2161796;39;20173;-71
2021/08/16 00:20:06;;;;;;;;;;;;;;;23.90;41.36;94792.41;2160011;54;20046;-69
2021/08/16 00:22:08;;;;;;;;;;;;;;;23.90;41.67;94784.38;2161601;47;20006;-70
2021/08/16 00:24:09;;;;;;;;;;;;;;;23.94;41.54;94790.88;2161633;47;19983;-69
2021/08/16 00:26:12;;;;;;;;;;;;;;;24.00;41.16;94783.72;2161789;47;19951;-71
2021/08/16 00:28:14;;;;;;;;;;;;;;;23.97;41.06;94790.38;2161518;54;19955;-71
2021/08/16 00:30:16;;;;;;;;;;;;;;;23.96;41.67;94780.72;2161735;54;19995;-68
2021/08/16 00:32:17;;;;;;;;;;;;;;;23.88;41.77;94783.81;2162164;39;20605;-69
2021/08/16 00:34:19;;;;;;;;;;;;;;;23.86;41.48;94785.91;2161654;54;20346;-70
2021/08/16 00:36:21;;;;;;;;;;;;;;;23.70;41.73;94790.94;2161127;54;19998;-69
2021/08/16 00:38:22;;;;;;;;;;;;;;;23.61;42.08;94792.34;2161409;54;20033;-71
2021/08/16 00:40:24;;;;;;;;;;;;;;;23.58;42.20;94784.81;2161883;39;20128;-70
2021/08/16 00:42:25;;;;;;;;;;;;;;;23.56;42.54;94788.78;2161654;54;19999;-72
2021/08/16 00:44:27;;;;;;;;;;;;;;;23.55;41.82;94784.47;2161534;54;19990;-70
2021/08/16 00:46:29;;;;;;;;;;;;;;;23.57;42.25;94780.50;2160892;54;19971;-71
2021/08/16 00:48:31;;;;;;;;;;;;;;;23.60;42.25;94790.75;2160414;54;19947;-70
2021/08/16 00:50:32;;;;;;;;;;;;;;;23.58;42.10;94787.50;2160518;54;19954;-70
2021/08/16 00:52:34;;;;;;;;;;;;;;;23.61;41.74;94789.69;2161497;47;20515;-71
2021/08/16 00:54:36;;;;;;;;;;;;;;;23.57;41.87;94777.84;2161314;54;20067;-69
2021/08/16 00:56:38;;;;;;;;;;;;;;;23.46;42.09;94784.84;2161162;54;20002;-69
2021/08/16 00:58:39;;;;;;;;;;;;;;;23.38;42.48;94776.38;2161837;54;19950;-70
2021/08/16 01:00:43;;;;;;;;;;;;;;;23.39;42.29;94783.38;2160475;47;20172;-68
2021/08/16 01:02:44;;;;;;;;;;;;;;;23.38;42.59;94784.41;2161530;47;20514;-70
2021/08/16 01:04:46;;;;;;;;;;;;;;;23.41;42.43;94781.28;2160168;54;19946;-70
2021/08/16 01:06:49;;;;;;;;;;;;;;;23.42;42.32;94786.38;2161501;39;20241;-69
2021/08/16 01:08:51;;;;;;;;;;;;;;;23.38;42.63;94779.91;2161520;54;20070;-70
2021/08/16 01:10:53;;;;;;;;;;;;;;;23.40;42.22;94775.09;2162144;54;19998;-72
2021/08/16 01:12:54;;;;;;;;;;;;;;;23.42;42.61;94783.69;2162202;47;19951;-71
2021/08/16 01:14:56;;;;;;;;;;;;;;;23.38;42.34;94781.72;2162225;54;20025;-70
2021/08/16 01:16:58;;;;;;;;;;;;;;;23.40;42.41;94780.44;2161761;54;20374;-70
2021/08/16 01:19:00;;;;;;;;;;;;;;;23.44;42.26;94786.13;2162383;54;19947;-71
2021/08/16 01:21:02;;;;;;;;;;;;;;;23.45;42.08;94783.22;2161019;47;19994;-70
2021/08/16 01:23:04;;;;;;;;;;;;;;;23.28;42.56;94785.84;2162558;54;19998;-71
2021/08/16 01:25:06;;;;;;;;;;;;;;;23.26;42.38;94787.13;2161419;54;20033;-70
2021/08/16 01:27:09;;;;;;;;;;;;;;;23.26;42.56;94785.25;2162005;47;19954;-71
2021/08/16 01:29:14;;;;;;;;;;;;;;;23.27;42.69;94786.06;2162038;54;19950;-70
2021/08/16 01:31:45;;;;;;;;;;;;;;;23.28;42.46;94777.81;2162343;46;19950;-69
2021/08/16 01:33:47;;;;;;;;;;;;;;;23.30;42.33;94777.59;2156337;31;20400;-71
2021/08/16 01:35:48;;;;;;;;;;;;;;;23.29;42.44;94781.28;2162210;39;20428;-70
2021/08/16 01:37:50;;;;;;;;;;;;;;;23.27;42.38;94780.72;2162119;54;19950;-69
2021/08/16 01:39:52;;;;;;;;;;;;;;;23.28;42.33;94777.81;2161992;39;20378;-70
2021/08/16 01:41:54;;;;;;;;;;;;;;;23.29;42.62;94768.72;2162144;54;19990;-70
2021/08/16 01:43:56;;;;;;;;;;;;;;;23.30;42.37;94767.69;2161939;39;20066;-70
2021/08/16 01:45:59;;;;;;;;;;;;;;;23.27;42.58;94775.38;2161757;54;19950;-70
2021/08/16 01:48:01;;;;;;;;;;;;;;;23.26;42.34;94768.41;2161876;54;19947;-72
2021/08/16 01:50:02;;;;;;;;;;;;;;;23.30;42.64;94772.25;2161235;54;19998;-70
2021/08/16 01:52:04;;;;;;;;;;;;;;;23.30;42.32;94775.72;2161342;47;20062;-70
2021/08/16 01:54:09;;;;;;;;;;;;;;;23.22;42.76;94773.41;2162178;54;20082;-70
2021/08/16 01:56:11;;;;;;;;;;;;;;;22.85;43.21;94779.00;2161853;39;20447;-71
2021/08/16 01:58:13;;;;;;;;;;;;;;;22.39;44.34;94780.66;2161580;46;19966;-71
2021/08/16 02:00:14;;;;;;;;;;;;;;;22.39;44.46;94775.31;2161925;47;19968;-67
2021/08/16 02:02:16;;;;;;;;;;;;;;;22.51;43.85;94775.31;2162266;31;20482;-70
2021/08/16 02:04:18;;;;;;;;;;;;;;;22.63;43.59;94778.00;2162598;39;20374;-70
2021/08/16 02:06:23;;;;;;;;;;;;;;;22.74;43.30;94766.50;2160786;47;19970;-72
2021/08/16 02:08:24;;;;;;;;;;;;;;;22.82;43.37;94768.81;2161832;54;20015;-71
2021/08/16 02:10:26;;;;;;;;;;;;;;;22.82;43.55;94774.16;2161973;54;19954;-72
2021/08/16 02:12:28;;;;;;;;;;;;;;;22.86;43.28;94766.47;2162273;46;20073;-70
2021/08/16 02:14:29;;;;;;;;;;;;;;;22.88;42.83;94772.38;2161503;47;19967;-70
2021/08/16 02:16:31;;;;;;;;;;;;;;;22.92;42.98;94770.06;2161501;46;19974;-70
2021/08/16 02:18:33;;;;;;;;;;;;;;;22.94;42.79;94773.31;2162574;39;20391;-71
2021/08/16 02:20:34;;;;;;;;;;;;;;;22.92;42.97;94778.09;2161244;47;19979;-71
2021/08/16 02:22:36;;;;;;;;;;;;;;;22.92;42.86;94772.75;2161911;54;19998;-71
2021/08/16 02:24:38;;;;;;;;;;;;;;;22.91;43.08;94771.94;2162272;47;19998;-70
2021/08/16 02:26:40;;;;;;;;;;;;;;;22.86;43.27;94769.94;2162191;54;19970;-71
2021/08/16 02:28:41;;;;;;;;;;;;;;;22.86;43.21;94769.13;2161688;47;19998;-70
2021/08/16 02:30:43;;;;;;;;;;;;;;;22.86;42.77;94769.94;2161547;54;19966;-69
2021/08/16 02:32:45;;;;;;;;;;;;;;;22.82;43.26;94784.00;2161442;54;19947;-70
2021/08/16 02:34:47;;;;;;;;;;;;;;;22.80;43.25;94778.91;2160793;47;19957;-70
2021/08/16 02:36:48;;;;;;;;;;;;;;;22.78;43.39;94781.00;2162324;39;20380;-70
2021/08/16 02:38:50;;;;;;;;;;;;;;;22.79;43.27;94779.94;2162125;54;20006;-70
2021/08/16 02:40:52;;;;;;;;;;;;;;;22.78;43.02;94775.66;2161864;47;19954;-70
2021/08/16 02:42:53;;;;;;;;;;;;;;;22.77;43.11;94783.91;2161859;54;20071;-69
2021/08/16 02:44:55;;;;;;;;;;;;;;;22.73;43.25;94780.88;2161835;39;20430;-70
2021/08/16 02:46:58;;;;;;;;;;;;;;;22.67;43.49;94779.97;2162452;39;20434;-71
2021/08/16 02:49:01;;;;;;;;;;;;;;;22.68;43.60;94778.91;2161896;54;19954;-71
2021/08/16 02:51:02;;;;;;;;;;;;;;;22.70;43.32;94773.34;2160788;46;20010;-70
2021/08/16 02:53:04;;;;;;;;;;;;;;;22.75;43.58;94781.44;2162083;54;20003;-69
2021/08/16 02:55:06;;;;;;;;;;;;;;;22.75;43.23;94781.44;2162456;54;19946;-70
2021/08/16 02:57:08;;;;;;;;;;;;;;;22.77;43.10;94778.56;2161681;47;20070;-70
2021/08/16 02:59:09;;;;;;;;;;;;;;;22.78;43.52;94781.00;2162256;39;20038;-70
2021/08/16 03:01:11;;;;;;;;;;;;;;;22.74;43.35;94782.50;2161581;54;20510;-71
2021/08/16 03:03:12;;;;;;;;;;;;;;;22.61;43.56;94782.75;2162271;54;19953;-70
2021/08/16 03:05:14;;;;;;;;;;;;;;;22.53;43.68;94780.41;2161645;54;19946;-70
2021/08/16 03:07:16;;;;;;;;;;;;;;;22.53;44.04;94775.88;2161036;47;19971;-71
2021/08/16 03:09:18;;;;;;;;;;;;;;;22.55;43.86;94767.66;2162345;47;20019;-70
2021/08/16 03:11:19;;;;;;;;;;;;;;;22.58;43.90;94773.31;2161023;54;19971;-70
2021/08/16 03:13:21;;;;;;;;;;;;;;;22.65;43.60;94771.38;2161051;47;19950;-69
2021/08/16 03:15:22;;;;;;;;;;;;;;;22.68;43.39;94773.56;2161940;31;20454;-69
2021/08/16 03:17:24;;;;;;;;;;;;;;;22.64;43.86;94782.28;2161891;54;20744;-71
2021/08/16 03:19:26;;;;;;;;;;;;;;;22.63;43.92;94767.31;2161692;54;19939;-71
2021/08/16 03:21:27;;;;;;;;;;;;;;;22.68;43.67;94770.09;2161657;54;19947;-70
2021/08/16 03:23:29;;;;;;;;;;;;;;;22.65;43.79;94767.88;2162237;54;20518;-69
2021/08/16 03:25:31;;;;;;;;;;;;;;;22.62;43.39;94763.00;2162056;39;20036;-71
2021/08/16 03:27:32;;;;;;;;;;;;;;;22.60;43.64;94770.44;2161666;54;19947;-71
2021/08/16 03:29:34;;;;;;;;;;;;;;;22.58;43.61;94772.50;2162166;47;19954;-71
2021/08/16 03:31:36;;;;;;;;;;;;;;;22.55;43.89;94779.13;2162183;39;20370;-69
2021/08/16 03:33:38;;;;;;;;;;;;;;;22.53;43.48;94775.88;2160889;54;20519;-69
2021/08/16 03:35:39;;;;;;;;;;;;;;;22.53;43.79;94778.56;2161435;54;20006;-70
2021/08/16 03:37:41;;;;;;;;;;;;;;;22.48;43.73;94778.44;2161631;39;20074;-70
2021/08/16 03:39:43;;;;;;;;;;;;;;;22.13;44.47;94787.16;2162145;47;20043;-70
2021/08/16 03:41:45;;;;;;;;;;;;;;;21.53;45.65;94785.38;2161850;54;19953;-71
2021/08/16 03:43:46;;;;;;;;;;;;;;;21.18;46.81;94782.47;2161838;54;19995;-71
2021/08/16 03:45:48;;;;;;;;;;;;;;;20.91;47.61;94796.09;2161540;54;19970;-71
2021/08/16 03:47:50;;;;;;;;;;;;;;;20.66;47.97;94793.47;2162195;54;19953;-70
2021/08/16 03:49:54;;;;;;;;;;;;;;;20.79;47.93;94788.00;2161067;54;19946;-71
2021/08/16 03:51:55;;;;;;;;;;;;;;;20.96;47.63;94795.41;2161800;54;20017;-71
2021/08/16 03:53:58;;;;;;;;;;;;;;;20.73;48.62;94801.38;2161407;54;20002;-72
2021/08/16 03:55:59;;;;;;;;;;;;;;;20.82;48.08;94792.91;2160910;47;20046;-71
2021/08/16 03:58:01;;;;;;;;;;;;;;;20.94;48.00;94790.31;2161573;54;19955;-71
2021/08/16 04:00:05;;;;;;;;;;;;;;;21.13;47.49;94788.47;2161152;54;19987;-69
2021/08/16 04:02:07;;;;;;;;;;;;;;;21.32;47.14;94797.28;2161440;47;20034;-71
2021/08/16 04:04:09;;;;;;;;;;;;;;;21.52;46.34;94796.25;2161960;54;19947;-71
2021/08/16 04:06:10;;;;;;;;;;;;;;;21.68;46.04;94792.94;2160946;54;19958;-71
2021/08/16 04:08:12;;;;;;;;;;;;;;;21.79;45.87;94794.84;2160091;47;20574;-70
2021/08/16 04:10:14;;;;;;;;;;;;;;;21.22;47.04;94796.97;2161062;54;20427;-70
2021/08/16 04:12:16;;;;;;;;;;;;;;;20.77;47.97;94802.56;2162093;54;19946;-70
2021/08/16 04:14:18;;;;;;;;;;;;;;;20.44;48.83;94803.66;2161777;47;20011;-71
2021/08/16 04:16:19;;;;;;;;;;;;;;;20.54;48.79;94805.81;2160976;54;20001;-69
2021/08/16 04:18:21;;;;;;;;;;;;;;;20.54;48.59;94809.31;2161343;39;20403;-70
2021/08/16 04:20:24;;;;;;;;;;;;;;;20.63;48.40;94804.56;2160687;54;20002;-69
2021/08/16 04:22:25;;;;;;;;;;;;;;;20.80;48.34;94804.78;2161925;54;20518;-70
2021/08/16 04:24:27;;;;;;;;;;;;;;;20.84;48.25;94804.16;2161962;54;19947;-69
2021/08/16 04:26:29;;;;;;;;;;;;;;;20.89;48.26;94798.16;2161473;54;19958;-70
2021/08/16 04:28:30;;;;;;;;;;;;;;;20.98;47.97;94804.00;2161507;47;19955;-70
2021/08/16 04:30:32;;;;;;;;;;;;;;;20.90;47.97;94798.97;2161203;54;19946;-71
2021/08/16 04:32:34;;;;;;;;;;;;;;;20.76;48.54;94803.63;2161407;54;20030;-71
2021/08/16 04:34:35;;;;;;;;;;;;;;;20.89;47.93;94799.97;2161639;39;20360;-72
2021/08/16 04:36:37;;;;;;;;;;;;;;;21.10;47.66;94804.91;2161528;54;19954;-70
2021/08/16 04:38:38;;;;;;;;;;;;;;;21.18;47.04;94801.13;2161202;54;19950;-71
2021/08/16 04:40:40;;;;;;;;;;;;;;;21.30;46.86;94796.69;2161366;46;19966;-70
2021/08/16 04:42:42;;;;;;;;;;;;;;;21.37;47.13;94799.25;2161706;54;20005;-71
2021/08/16 04:44:44;;;;;;;;;;;;;;;21.42;46.50;94802.09;2161602;47;20071;-71
2021/08/16 04:46:45;;;;;;;;;;;;;;;21.47;46.18;94797.72;2162759;47;19954;-70
2021/08/16 04:48:47;;;;;;;;;;;;;;;21.46;46.58;94800.59;2162223;54;20033;-70
2021/08/16 04:50:48;;;;;;;;;;;;;;;21.42;46.38;94796.75;2161201;47;20030;-70
2021/08/16 04:52:50;;;;;;;;;;;;;;;21.51;46.45;94803.44;2161985;54;19946;-70
2021/08/16 04:54:52;;;;;;;;;;;;;;;21.65;46.82;94794.19;2162566;46;20041;-72
2021/08/16 04:56:53;;;;;;;;;;;;;;;21.86;46.30;94806.22;2162190;47;20366;-72
2021/08/16 04:58:57;;;;;;;;;;;;;;;22.12;45.95;94798.09;2162270;54;20042;-71
2021/08/16 05:00:58;;;;;;;;;;;;;;;22.35;44.72;94806.16;2161252;54;19966;-70
2021/08/16 05:03:02;;;;;;;;;;;;;;;22.49;44.34;94812.91;2162718;39;20519;-72
2021/08/16 05:05:08;;;;;;;;;;;;;;;22.56;44.00;94807.44;2161458;54;20455;-71
2021/08/16 05:07:10;;;;;;;;;;;;;;;22.63;44.30;94813.50;2161945;54;20511;-72
2021/08/16 05:09:11;;;;;;;;;;;;;;;22.48;44.12;94808.63;2161558;47;19994;-72
2021/08/16 05:11:13;;;;;;;;;;;;;;;22.52;44.42;94813.47;2162177;54;19947;-71
2021/08/16 05:13:15;;;;;;;;;;;;;;;22.63;44.06;94813.50;2161880;47;20439;-72
2021/08/16 05:15:19;;;;;;;;;;;;;;;22.77;43.94;94819.41;2161704;54;19955;-71
2021/08/16 05:17:21;;;;;;;;;;;;;;;22.90;43.63;94815.72;2162688;39;20327;-70
2021/08/16 05:19:22;;;;;;;;;;;;;;;23.01;43.35;94825.59;2161645;54;20078;-71
2021/08/16 05:21:24;;;;;;;;;;;;;;;22.94;43.80;94819.53;2161050;47;19994;-70
2021/08/16 05:23:25;;;;;;;;;;;;;;;22.91;43.61;94817.34;2162499;54;19950;-71
2021/08/16 05:25:27;;;;;;;;;;;;;;;22.73;44.08;94818.25;2162232;39;20019;-71
2021/08/16 05:27:29;;;;;;;;;;;;;;;22.56;44.59;94823.47;2162192;47;19976;-71
2021/08/16 05:29:30;;;;;;;;;;;;;;;22.48;44.96;94816.63;2161578;46;19951;-70
2021/08/16 05:31:32;;;;;;;;;;;;;;;22.69;44.27;94817.09;2162350;46;20007;-71
2021/08/16 05:33:34;;;;;;;;;;;;;;;22.85;43.82;94816.41;2161825;47;19947;-74
2021/08/16 05:35:36;;;;;;;;;;;;;;;22.88;43.92;94810.59;2161613;47;19958;-71
2021/08/16 05:37:37;;;;;;;;;;;;;;;22.98;43.68;94815.34;2161100;31;20583;-71
2021/08/16 05:39:39;;;;;;;;;;;;;;;23.09;43.47;94816.44;2161208;54;20050;-69
2021/08/16 05:41:41;;;;;;;;;;;;;;;23.14;43.34;94813.03;2161775;39;20094;-73
2021/08/16 05:46:06;;;;;;;;;;;;;;;23.16;43.43;94830.47;2162177;47;20050;-72
2021/08/16 05:48:08;;;;;;;;;;;;;;;23.25;42.71;94825.56;2162280;39;20238;-71
2021/08/16 05:50:10;;;;;;;;;;;;;;;23.41;42.38;94819.50;2161158;39;20326;-70
2021/08/16 05:52:12;;;;;;;;;;;;;;;23.51;41.89;94817.06;2161675;47;19990;-71
2021/08/16 05:54:13;;;;;;;;;;;;;;;23.66;41.76;94818.38;2161592;54;19943;-70
2021/08/16 05:56:15;;;;;;;;;;;;;;;23.75;41.41;94810.78;2162321;39;20429;-73
2021/08/16 05:58:17;;;;;;;;;;;;;;;23.85;41.20;94822.53;2161843;46;20010;-72
2021/08/16 06:00:19;;;;;;;;;;;;;;;23.91;41.26;94823.44;2161577;47;20049;-71
2021/08/16 06:02:20;;;;;;;;;;;;;;;24.07;41.16;94821.84;2162040;39;20050;-71
2021/08/16 06:04:22;;;;;;;;;;;;;;;24.21;40.93;94820.50;2161706;47;20424;-72
2021/08/16 06:06:24;;;;;;;;;;;;;;;23.79;41.81;94817.31;2161028;39;20230;-70
2021/08/16 06:08:25;;;;;;;;;;;;;;;23.71;41.97;94813.94;2161991;54;19987;-72
2021/08/16 06:10:27;;;;;;;;;;;;;;;23.86;41.54;94818.00;2161274;54;19954;-72
2021/08/16 06:12:29;;;;;;;;;;;;;;;23.47;42.30;94812.41;2161585;47;20065;-70
2021/08/16 06:14:30;;;;;;;;;;;;;;;23.11;42.83;94822.34;2162382;54;19951;-71
2021/08/16 06:16:32;;;;;;;;;;;;;;;23.14;43.15;94813.03;2161822;47;19998;-72
2021/08/16 06:18:34;;;;;;;;;;;;;;;23.16;42.89;94814.44;2162262;39;20376;-73
2021/08/16 06:20:35;;;;;;;;;;;;;;;23.16;43.23;94813.63;2161471;54;19947;-71
2021/08/16 06:22:39;;;;;;;;;;;;;;;23.10;42.94;94821.53;2161868;54;19946;-72
2021/08/16 06:24:41;;;;;;;;;;;;;;;23.12;42.81;94821.28;2161796;39;20285;-73
2021/08/16 06:26:42;;;;;;;;;;;;;;;23.41;41.93;94821.38;2161894;47;19953;-76
2021/08/16 06:28:44;;;;;;;;;;;;;;;23.44;42.20;94823.56;2162327;54;19998;-73
2021/08/16 06:30:46;;;;;;;;;;;;;;;23.64;41.53;94825.81;2161586;39;20114;-75
2021/08/16 06:32:48;;;;;;;;;;;;;;;23.65;41.28;94825.59;2161545;54;20049;-71
2021/08/16 06:34:50;;;;;;;;;;;;;;;23.78;41.58;94821.06;2160921;54;19973;-71
2021/08/16 06:36:56;;;;;;;;;;;;;;;24.05;41.05;94827.47;2161465;47;19969;-68
2021/08/16 06:38:57;;;;;;;;;;;;;;;24.21;40.67;94825.84;2162204;54;20577;-68
2021/08/16 06:40:59;;;;;;;;;;;;;;;24.32;40.08;94829.53;2161805;47;19958;-64
2021/08/16 06:43:01;;;;;;;;;;;;;;;24.22;40.28;94822.16;2162127;54;19990;-63
2021/08/16 06:45:03;;;;;;;;;;;;;;;24.38;40.02;94825.88;2162049;54;20001;-65
2021/08/16 06:47:05;;;;;;;;;;;;;;;24.60;39.52;94819.84;2162249;54;19953;-64
2021/08/16 06:49:07;;;;;;;;;;;;;;;24.80;39.55;94820.16;2161611;54;19982;-64
2021/08/16 06:51:08;;;;;;;;;;;;;;;24.22;41.05;94821.31;2161619;39;20387;-62
2021/08/16 06:53:14;;;;;;;;;;;;;;;23.95;41.52;94827.28;2161776;54;20069;-67
2021/08/16 06:55:15;;;;;;;;;;;;;;;24.07;41.52;94828.03;2161735;47;19954;-64
2021/08/16 06:57:17;;;;;;;;;;;;;;;24.18;41.68;94820.16;2161605;54;19990;-68
2021/08/16 06:59:19;;;;;;;;;;;;;;;24.29;41.40;94828.16;2162544;54;20122;-68
2021/08/16 07:01:21;;;;;;;;;;;;;;;24.60;40.65;94820.63;2162774;39;20424;-66
2021/08/16 07:03:23;;;;;;;;;;;;;;;24.48;40.57;94817.22;2162532;47;19951;-68
2021/08/16 07:05:25;;;;;;;;;;;;;;;24.42;41.17;94820.88;2162037;54;19947;-67
2021/08/16 07:07:27;;;;;;;;;;;;;;;24.71;40.68;94822.41;2161982;54;19947;-65
2021/08/16 07:09:28;;;;;;;;;;;;;;;24.63;40.38;94824.69;2163269;54;20471;-68
2021/08/16 07:11:30;;;;;;;;;;;;;;;24.55;41.02;94827.81;2161748;47;19954;-68
2021/08/16 07:13:32;;;;;;;;;;;;;;;24.41;41.04;94820.03;2162839;47;19975;-67
2021/08/16 07:15:33;;;;;;;;;;;;;;;24.36;40.80;94827.19;2163204;54;19946;-68
2021/08/16 07:17:35;;;;;;;;;;;;;;;24.52;40.71;94829.91;2162690;47;19951;-68
2021/08/16 07:19:37;;;;;;;;;;;;;;;24.53;40.97;94818.13;2162614;47;19955;-67
2021/08/16 07:21:38;;;;;;;;;;;;;;;24.75;40.50;94822.75;2163054;47;19962;-67
2021/08/16 07:23:40;;;;;;;;;;;;;;;24.78;40.21;94822.28;2162691;46;20057;-67
2021/08/16 07:25:42;;;;;;;;;;;;;;;24.96;40.05;94825.75;2163203;54;20017;-67
2021/08/16 07:27:43;;;;;;;;;;;;;;;25.28;39.55;94826.75;2161413;54;19990;-68
2021/08/16 07:29:45;;;;;;;;;;;;;;;25.54;38.74;94824.41;2162504;54;19947;-69
2021/08/16 07:31:47;;;;;;;;;;;;;;;25.53;38.39;94823.59;2162260;47;20459;-69
2021/08/16 07:33:51;;;;;;;;;;;;;;;25.39;38.84;94826.91;2162738;54;19953;-62
2021/08/16 07:35:53;;;;;;;;;;;;;;;25.24;39.15;94822.94;2162206;54;19957;-65
2021/08/16 07:37:55;;;;;;;;;;;;;;;25.11;39.53;94826.75;2161746;46;20538;-66
2021/08/16 07:39:57;;;;;;;;;;;;;;;25.30;39.07;94818.47;2161689;47;19950;-65
2021/08/16 07:41:58;;;;;;;;;;;;;;;25.45;38.74;94818.66;2162877;54;19954;-68
2021/08/16 07:44:00;;;;;;;;;;;;;;;25.48;38.80;94823.53;2162208;52;19972;-68
2021/08/16 07:46:03;;;;;;;;;;;;;;;25.52;38.45;94813.91;2162466;46;19962;-66
2021/08/16 07:48:05;;;;;;;;;;;;;;;25.81;38.46;94812.91;2162656;54;20002;-66
2021/08/16 07:50:09;;;;;;;;;;;;;;;25.87;37.80;94809.22;2162034;47;19947;-66
2021/08/16 07:52:11;;;;;;;;;;;;;;;25.23;38.85;94821.34;2162219;39;20028;-62
2021/08/16 07:54:13;;;;;;;;;;;;;;;25.24;38.83;94816.78;2162250;39;20379;-71
2021/08/16 07:56:14;;;;;;;;;;;;;;;25.40;38.54;94807.84;2162379;54;19998;-61
2021/08/16 07:58:16;;;;;;;;;;;;;;;25.64;38.34;94800.41;2162570;46;19991;-67
2021/08/16 08:00:18;;;;;;;;;;;;;;;25.89;37.63;94804.44;2161261;47;20477;-65
2021/08/16 08:02:20;;;;;;;;;;;;;;;26.25;37.00;94804.81;2162221;54;19950;-66
2021/08/16 08:04:21;;;;;;;;;;;;;;;26.59;36.59;94801.88;2162424;47;19951;-64
2021/08/16 08:06:24;;;;;;;;;;;;;;;26.80;36.20;94802.84;2162046;54;19947;-64
2021/08/16 08:08:26;;;;;;;;;;;;;;;26.98;35.98;94798.94;2162032;39;20504;-62
2021/08/16 08:10:27;;;;;;;;;;;;;;;27.12;35.20;94802.78;2162692;54;19946;-64
2021/08/16 08:12:31;;;;;;;;;;;;;;;27.20;35.28;94798.81;2160485;54;19958;-60
2021/08/16 08:14:33;;;;;;;;;;;;;;;27.37;35.09;94797.56;2162115;54;19950;-63
2021/08/16 08:16:35;;;;;;;;;;;;;;;27.61;34.83;94794.44;2161107;54;19946;-61
2021/08/16 08:18:37;;;;;;;;;;;;;;;27.84;34.64;94795.06;2162153;54;19946;-61
2021/08/16 08:20:39;;;;;;;;;;;;;;;27.89;34.14;94793.22;2162116;54;19951;-59
2021/08/16 08:22:41;;;;;;;;;;;;;;;27.89;33.96;94792.41;2163483;54;19954;-61
2021/08/16 08:24:43;;;;;;;;;;;;;;;27.86;34.12;94787.56;2163229;47;19986;-61
2021/08/16 08:26:45;;;;;;;;;;;;;;;27.98;33.93;94791.63;2162603;54;19970;-61
2021/08/16 08:28:46;;;;;;;;;;;;;;;28.12;34.22;94794.59;2163489;54;20026;-60
2021/08/16 08:30:48;;;;;;;;;;;;;;;28.33;33.54;94789.22;2162616;47;20006;-61
2021/08/16 08:32:51;;;;;;;;;;;;;;;28.47;33.70;94794.91;2163324;47;20740;-61
2021/08/16 08:34:53;;;;;;;;;;;;;;;28.55;33.04;94783.63;2162433;54;20074;-62
2021/08/16 08:36:54;;;;;;;;;;;;;;;28.49;32.92;94788.19;2162964;54;20395;-62
2021/08/16 08:38:56;;;;;;;;;;;;;;;28.39;32.79;94774.69;2162992;54;20037;-61
2021/08/16 08:40:58;;;;;;;;;;;;;;;28.07;32.95;94778.44;2162925;54;19951;-61
2021/08/16 08:43:00;;;;;;;;;;;;;;;27.63;34.03;94776.16;2162782;46;19999;-62
2021/08/16 08:45:01;;;;;;;;;;;;;;;27.41;34.66;94775.53;2163287;54;20061;-58
2021/08/16 08:47:03;;;;;;;;;;;;;;;27.57;33.88;94774.50;2163032;47;19954;-58
2021/08/16 08:49:05;;;;;;;;;;;;;;;27.50;34.41;94776.66;2163443;46;20805;-59
2021/08/16 08:51:07;;;;;;;;;;;;;;;27.74;33.66;94776.97;2162579;54;20089;-59
2021/08/16 08:53:09;;;;;;;;;;;;;;;27.99;33.72;94768.19;2163294;54;20569;-62
2021/08/16 08:55:11;;;;;;;;;;;;;;;28.28;33.28;94771.19;2163462;54;19955;-61
2021/08/16 08:57:33;;;;;;;;;;;;;;;28.65;32.90;94769.31;2163407;47;19950;-60
2021/08/16 08:59:35;;;;;;;;;;;;;;;28.87;32.40;94766.34;2163266;47;19946;-61
2021/08/16 09:01:37;;;;;;;;;;;;;;;29.03;31.70;94765.22;2163521;54;19994;-61
2021/08/16 09:03:49;;;;;;;;;;;;;;;29.05;31.31;94763.06;2163515;47;19953;-60
2021/08/16 09:05:52;;;;;;;;;;;;;;;28.98;31.14;94760.66;2162617;47;19954;-60
2021/08/16 09:07:59;;;;;;;;;;;;;;;28.70;31.95;94761.25;2163263;47;20049;-59
2021/08/16 09:10:00;;;;;;;;;;;;;;;28.39;32.04;94753.13;2162971;46;19986;-59
2021/08/16 09:12:02;;;;;;;;;;;;;;;28.33;31.94;94752.34;2163294;46;19957;-60
2021/08/16 09:14:05;;;;;;;;;;;;;;;28.46;32.14;94758.25;2162765;47;20030;-59
2021/08/16 09:16:07;;;;;;;;;;;;;;;28.81;31.48;94753.97;2162889;47;19957;-60
2021/08/16 09:18:09;;;;;;;;;;;;;;;29.06;31.35;94753.06;2162762;46;20031;-61
2021/08/16 09:20:14;;;;;;;;;;;;;;;28.91;31.67;94749.34;2162640;54;20460;-59
2021/08/16 09:22:22;;;;;;;;;;;;;;;28.94;31.26;94746.09;2163640;39;20336;-60
2021/08/16 09:24:25;;;;;;;;;;;;;;;29.09;31.06;94750.69;2163430;46;19946;-60
2021/08/16 09:26:27;;;;;;;;;;;;;;;29.07;30.82;94747.41;2163928;39;20360;-62
2021/08/16 09:28:49;;;;;;;;;;;;;;;28.53;31.17;94743.47;2163295;54;20054;-59
2021/08/16 09:30:50;;;;;;;;;;;;;;;28.47;31.52;94738.31;2163204;54;20006;-59
2021/08/16 09:32:52;;;;;;;;;;;;;;;28.43;31.97;94739.94;2163406;47;20475;-60
2021/08/16 09:34:54;;;;;;;;;;;;;;;28.62;31.23;94734.84;2162056;47;20002;-59
2021/08/16 09:37:00;;;;;;;;;;;;;;;28.74;30.92;94738.88;2162167;54;20002;-59
2021/08/16 09:39:23;;;;;;;;;;;;;;;28.82;30.99;94728.59;2163160;47;19954;-60
2021/08/16 09:41:25;;;;;;;;;;;;;;;28.99;30.65;94735.28;2163466;54;19946;-59
2021/08/16 09:43:27;;;;;;;;;;;;;;;29.06;30.43;94721.53;2163128;54;20180;-63
2021/08/16 09:45:33;;;;;;;;;;;;;;;29.08;30.11;94716.69;2163062;54;19950;-60
2021/08/16 09:47:42;;;;;;;;;;;;;;;29.28;29.86;94725.81;2162991;47;20637;-62
2021/08/16 09:49:43;;;;;;;;;;;;;;;29.52;29.40;94715.19;2162490;54;20062;-61
2021/08/16 09:51:45;;;;;;;;;;;;;;;29.19;29.53;94717.47;2162645;54;20451;-62
2021/08/16 09:53:46;;;;;;;;;;;;;;;29.13;29.74;94711.28;2162522;47;19995;-59
2021/08/16 09:55:49;;;;;;;;;;;;;;;29.29;29.28;94712.03;2162524;46;20010;-61
2021/08/16 09:57:51;;;;;;;;;;;;;;;29.61;29.57;94706.19;2162605;54;19946;-60
2021/08/16 09:59:55;;;;;;;;;;;;;;;29.76;28.79;94708.03;2162375;47;20026;-61
2021/08/16 10:01:57;;;;;;;;;;;;;;;29.68;29.12;94705.88;2162592;47;19954;-60
2021/08/16 10:03:58;;;;;;;;;;;;;;;29.89;28.64;94701.19;2163586;54;19971;-58
2021/08/16 10:06:00;;;;;;;;;;;;;;;30.17;28.58;94693.44;2162442;47;19966;-60
2021/08/16 10:08:04;;;;;;;;;;;;;;;30.42;27.68;94692.47;2162926;39;20370;-58
2021/08/16 10:10:06;;;;;;;;;;;;;;;30.64;27.01;94689.28;2162603;54;19991;-57
2021/08/16 10:12:08;;;;;;;;;;;;;;;30.71;27.19;94683.53;2162398;47;19947;-58
2021/08/16 10:14:10;;;;;;;;;;;;;;;30.79;26.85;94685.59;2162479;47;20075;-60
2021/08/16 10:16:12;;;;;;;;;;;;;;;30.82;26.28;94688.56;2162713;31;20526;-61
2021/08/16 10:18:16;;;;;;;;;;;;;;;30.89;26.48;94679.28;2162405;54;20490;-60
2021/08/16 10:20:17;;;;;;;;;;;;;;;30.86;26.40;94688.78;2161280;54;19991;-62
2021/08/16 10:22:19;;;;;;;;;;;;;;;30.39;27.25;94672.22;2161981;54;19946;-59
2021/08/16 10:24:25;;;;;;;;;;;;;;;30.07;27.50;94677.31;2162304;54;20538;-59
2021/08/16 10:26:27;;;;;;;;;;;;;;;29.95;27.42;94673.06;2163129;54;19974;-59
2021/08/16 10:28:29;;;;;;;;;;;;;;;30.07;27.25;94682.72;2162644;47;19956;-60
2021/08/16 10:30:31;;;;;;;;;;;;;;;30.11;27.56;94672.97;2162681;54;20681;-60
2021/08/16 10:32:33;;;;;;;;;;;;;;;30.24;27.40;94676.91;2162530;54;20543;-58
2021/08/16 10:34:35;;;;;;;;;;;;;;;30.53;26.93;94672.34;2162370;54;19953;-60
2021/08/16 10:36:37;;;;;;;;;;;;;;;30.81;26.53;94673.41;2162606;54;20089;-61
2021/08/16 10:38:46;;;;;;;;;;;;;;;30.62;26.63;94667.91;2162667;46;20100;-60
2021/08/16 10:40:49;;;;;;;;;;;;;;;30.79;26.52;94666.69;2163093;54;20403;-59